Terminal Aerodrome Forecast
Issued by NWS Wilmington, OH

Current Version | Previous Version | Text Only | Print | Product List | Glossary Off
Versions: 1 2 3 4 5 6 7 8 9 10 11 12 13 14 15 16 17 18 19 20 21 22 23 24 25 26 27 28 29 30 31

778
FTUS41 KILN 150708 AAA
TAFDAY
TAF AMD
KDAY 150708Z 1507/1606 35007KT 4SM BR BKN010 OVC014
     FM150800 02004KT 4SM BR BKN035
     FM151500 07006KT P6SM BKN040
     FM160000 09004KT P6SM SCT012 OVC050=

USA.gov is the U.S. government's official web portal to all federal, state and local government web resources and services.